sensor_id;sensor_type;location;lat;lon;timestamp;P1;durP1;ratioP1;P2;durP2;ratioP2
20535;SDS011;10426;49.420;8.390;2023-03-23T00:02:12;1.20;;;1.20;;
20535;SDS011;10426;49.420;8.390;2023-03-23T00:04:38;2.20;;;1.40;;
20535;SDS011;10426;49.420;8.390;2023-03-23T00:07:05;1.40;;;1.15;;
20535;SDS011;10426;49.420;8.390;2023-03-23T00:09:33;1.30;;;1.20;;
20535;SDS011;10426;49.420;8.390;2023-03-23T00:12:07;1.40;;;1.30;;
20535;SDS011;10426;49.420;8.390;2023-03-23T00:14:33;1.30;;;1.10;;
20535;SDS011;10426;49.420;8.390;2023-03-23T00:17:07;1.30;;;1.20;;
20535;SDS011;10426;49.420;8.390;2023-03-23T00:19:35;1.30;;;1.20;;
20535;SDS011;10426;49.420;8.390;2023-03-23T00:22:12;1.33;;;1.33;;
20535;SDS011;10426;49.420;8.390;2023-03-23T00:24:40;1.20;;;1.20;;
20535;SDS011;10426;49.420;8.390;2023-03-23T00:27:07;1.23;;;1.13;;
20535;SDS011;10426;49.420;8.390;2023-03-23T00:29:34;1.30;;;1.20;;
20535;SDS011;10426;49.420;8.390;2023-03-23T00:32:00;1.10;;;1.00;;
20535;SDS011;10426;49.420;8.390;2023-03-23T00:34:27;1.10;;;1.10;;
20535;SDS011;10426;49.420;8.390;2023-03-23T00:36:57;2.03;;;1.17;;
20535;SDS011;10426;49.420;8.390;2023-03-23T00:39:24;1.33;;;1.27;;
20535;SDS011;10426;49.420;8.390;2023-03-23T00:41:53;2.00;;;1.30;;
20535;SDS011;10426;49.420;8.390;2023-03-23T00:44:26;2.20;;;1.35;;
20535;SDS011;10426;49.420;8.390;2023-03-23T00:46:53;1.30;;;1.20;;
20535;SDS011;10426;49.420;8.390;2023-03-23T00:49:22;2.78;;;1.30;;
20535;SDS011;10426;49.420;8.390;2023-03-23T00:51:50;1.20;;;1.20;;
20535;SDS011;10426;49.420;8.390;2023-03-23T00:54:17;1.63;;;1.30;;
20535;SDS011;10426;49.420;8.390;2023-03-23T00:56:45;1.50;;;1.50;;
20535;SDS011;10426;49.420;8.390;2023-03-23T00:59:13;1.40;;;1.30;;
20535;SDS011;10426;49.420;8.390;2023-03-23T01:01:40;1.30;;;1.20;;
20535;SDS011;10426;49.420;8.390;2023-03-23T01:04:08;1.50;;;1.30;;
20535;SDS011;10426;49.420;8.390;2023-03-23T01:06:38;1.15;;;1.10;;
20535;SDS011;10426;49.420;8.390;2023-03-23T01:09:05;1.38;;;1.27;;
20535;SDS011;10426;49.420;8.390;2023-03-23T01:11:32;1.13;;;1.00;;
20535;SDS011;10426;49.420;8.390;2023-03-23T01:13:59;1.00;;;1.00;;
20535;SDS011;10426;49.420;8.390;2023-03-23T01:16:26;1.38;;;1.10;;
20535;SDS011;10426;49.420;8.390;2023-03-23T01:18:53;1.08;;;1.08;;
20535;SDS011;10426;49.420;8.390;2023-03-23T01:21:20;1.30;;;1.02;;
20535;SDS011;10426;49.420;8.390;2023-03-23T01:23:47;1.27;;;1.00;;
20535;SDS011;10426;49.420;8.390;2023-03-23T01:26:15;1.13;;;1.10;;
20535;SDS011;10426;49.420;8.390;2023-03-23T01:28:42;1.80;;;1.15;;
20535;SDS011;10426;49.420;8.390;2023-03-23T01:31:09;2.00;;;1.10;;
20535;SDS011;10426;49.420;8.390;2023-03-23T01:33:39;1.02;;;0.93;;
20535;SDS011;10426;49.420;8.390;2023-03-23T01:36:06;0.93;;;0.93;;
20535;SDS011;10426;49.420;8.390;2023-03-23T01:38:34;1.25;;;1.15;;
20535;SDS011;10426;49.420;8.390;2023-03-23T01:41:01;1.30;;;1.20;;
20535;SDS011;10426;49.420;8.390;2023-03-23T01:43:28;1.30;;;1.20;;
20535;SDS011;10426;49.420;8.390;2023-03-23T01:45:55;1.17;;;1.17;;
20535;SDS011;10426;49.420;8.390;2023-03-23T01:48:22;1.40;;;1.30;;
20535;SDS011;10426;49.420;8.390;2023-03-23T01:50:53;1.15;;;1.15;;
20535;SDS011;10426;49.420;8.390;2023-03-23T01:53:21;1.33;;;1.25;;
20535;SDS011;10426;49.420;8.390;2023-03-23T01:55:49;1.17;;;1.17;;
20535;SDS011;10426;49.420;8.390;2023-03-23T01:58:17;1.50;;;1.42;;
20535;SDS011;10426;49.420;8.390;2023-03-23T02:00:45;1.23;;;1.13;;
20535;SDS011;10426;49.420;8.390;2023-03-23T02:03:13;1.13;;;0.95;;
20535;SDS011;10426;49.420;8.390;2023-03-23T02:05:42;1.10;;;1.10;;
20535;SDS011;10426;49.420;8.390;2023-03-23T02:08:10;1.27;;;1.17;;
20535;SDS011;10426;49.420;8.390;2023-03-23T02:10:39;1.15;;;1.10;;
20535;SDS011;10426;49.420;8.390;2023-03-23T02:13:07;1.40;;;1.20;;
20535;SDS011;10426;49.420;8.390;2023-03-23T02:15:36;1.20;;;1.20;;
20535;SDS011;10426;49.420;8.390;2023-03-23T02:18:06;1.35;;;1.25;;
20535;SDS011;10426;49.420;8.390;2023-03-23T02:20:41;1.30;;;1.20;;
20535;SDS011;10426;49.420;8.390;2023-03-23T02:23:21;1.20;;;1.10;;
20535;SDS011;10426;49.420;8.390;2023-03-23T02:26:02;1.10;;;1.10;;
20535;SDS011;10426;49.420;8.390;2023-03-23T02:28:34;2.22;;;1.13;;
20535;SDS011;10426;49.420;8.390;2023-03-23T02:33:53;2.90;;;1.10;;
20535;SDS011;10426;49.420;8.390;2023-03-23T02:36:23;1.45;;;1.10;;
20535;SDS011;10426;49.420;8.390;2023-03-23T02:38:53;1.70;;;1.08;;
20535;SDS011;10426;49.420;8.390;2023-03-23T02:41:22;1.40;;;1.10;;
20535;SDS011;10426;49.420;8.390;2023-03-23T02:43:50;1.10;;;1.10;;
20535;SDS011;10426;49.420;8.390;2023-03-23T02:46:18;1.00;;;1.00;;
20535;SDS011;10426;49.420;8.390;2023-03-23T02:48:45;1.30;;;1.20;;
20535;SDS011;10426;49.420;8.390;2023-03-23T02:51:15;1.00;;;1.00;;
20535;SDS011;10426;49.420;8.390;2023-03-23T02:53:42;1.13;;;1.13;;
20535;SDS011;10426;49.420;8.390;2023-03-23T02:56:09;1.38;;;1.00;;
20535;SDS011;10426;49.420;8.390;2023-03-23T02:58:37;1.10;;;1.10;;
20535;SDS011;10426;49.420;8.390;2023-03-23T03:04:03;1.00;;;1.00;;
20535;SDS011;10426;49.420;8.390;2023-03-23T03:06:34;1.00;;;1.00;;
20535;SDS011;10426;49.420;8.390;2023-03-23T03:09:05;1.10;;;1.10;;
20535;SDS011;10426;49.420;8.390;2023-03-23T03:11:33;1.02;;;1.00;;
20535;SDS011;10426;49.420;8.390;2023-03-23T03:14:02;1.13;;;1.10;;
20535;SDS011;10426;49.420;8.390;2023-03-23T03:16:31;1.52;;;1.30;;
20535;SDS011;10426;49.420;8.390;2023-03-23T03:19:01;1.40;;;1.20;;
20535;SDS011;10426;49.420;8.390;2023-03-23T03:21:29;1.88;;;1.30;;
20535;SDS011;10426;49.420;8.390;2023-03-23T03:23:58;1.10;;;1.10;;
20535;SDS011;10426;49.420;8.390;2023-03-23T03:26:26;1.73;;;1.40;;
20535;SDS011;10426;49.420;8.390;2023-03-23T03:28:54;1.58;;;1.38;;
20535;SDS011;10426;49.420;8.390;2023-03-23T03:31:21;1.30;;;1.30;;
20535;SDS011;10426;49.420;8.390;2023-03-23T03:33:49;1.42;;;1.23;;
20535;SDS011;10426;49.420;8.390;2023-03-23T03:36:17;1.30;;;1.20;;
20535;SDS011;10426;49.420;8.390;2023-03-23T03:38:45;1.40;;;1.30;;
20535;SDS011;10426;49.420;8.390;2023-03-23T03:41:13;1.63;;;1.30;;
20535;SDS011;10426;49.420;8.390;2023-03-23T03:43:40;1.40;;;1.30;;
20535;SDS011;10426;49.420;8.390;2023-03-23T03:46:07;1.80;;;1.30;;
20535;SDS011;10426;49.420;8.390;2023-03-23T03:48:33;1.25;;;1.23;;
20535;SDS011;10426;49.420;8.390;2023-03-23T03:51:00;1.48;;;1.40;;
20535;SDS011;10426;49.420;8.390;2023-03-23T03:53:28;1.30;;;1.30;;
20535;SDS011;10426;49.420;8.390;2023-03-23T03:55:55;1.50;;;1.40;;
20535;SDS011;10426;49.420;8.390;2023-03-23T03:58:26;3.13;;;1.40;;
20535;SDS011;10426;49.420;8.390;2023-03-23T04:00:57;1.65;;;1.50;;
20535;SDS011;10426;49.420;8.390;2023-03-23T04:03:24;2.35;;;1.60;;
20535;SDS011;10426;49.420;8.390;2023-03-23T04:05:51;1.92;;;1.50;;
20535;SDS011;10426;49.420;8.390;2023-03-23T04:08:18;1.60;;;1.50;;
20535;SDS011;10426;49.420;8.390;2023-03-23T04:10:44;1.55;;;1.45;;
20535;SDS011;10426;49.420;8.390;2023-03-23T04:13:11;1.50;;;1.40;;
20535;SDS011;10426;49.420;8.390;2023-03-23T04:15:39;1.95;;;1.42;;
20535;SDS011;10426;49.420;8.390;2023-03-23T04:18:05;1.65;;;1.40;;
20535;SDS011;10426;49.420;8.390;2023-03-23T04:20:32;1.70;;;1.60;;
20535;SDS011;10426;49.420;8.390;2023-03-23T04:23:00;1.50;;;1.40;;
20535;SDS011;10426;49.420;8.390;2023-03-23T04:25:27;1.63;;;1.50;;
20535;SDS011;10426;49.420;8.390;2023-03-23T04:27:53;1.60;;;1.50;;
20535;SDS011;10426;49.420;8.390;2023-03-23T04:30:20;1.60;;;1.50;;
20535;SDS011;10426;49.420;8.390;2023-03-23T04:32:49;1.60;;;1.45;;
20535;SDS011;10426;49.420;8.390;2023-03-23T04:35:17;2.10;;;1.42;;
20535;SDS011;10426;49.420;8.390;2023-03-23T04:37:44;2.03;;;1.58;;
20535;SDS011;10426;49.420;8.390;2023-03-23T04:40:12;1.60;;;1.50;;
20535;SDS011;10426;49.420;8.390;2023-03-23T04:42:40;1.48;;;1.38;;
20535;SDS011;10426;49.420;8.390;2023-03-23T04:45:11;2.57;;;1.63;;
20535;SDS011;10426;49.420;8.390;2023-03-23T04:47:38;1.63;;;1.52;;
20535;SDS011;10426;49.420;8.390;2023-03-23T04:50:09;2.28;;;1.70;;
20535;SDS011;10426;49.420;8.390;2023-03-23T04:52:37;1.50;;;1.40;;
20535;SDS011;10426;49.420;8.390;2023-03-23T04:55:06;4.40;;;2.33;;
20535;SDS011;10426;49.420;8.390;2023-03-23T04:57:33;5.28;;;2.60;;
20535;SDS011;10426;49.420;8.390;2023-03-23T05:00:00;5.78;;;2.13;;
20535;SDS011;10426;49.420;8.390;2023-03-23T05:02:30;2.38;;;1.98;;
20535;SDS011;10426;49.420;8.390;2023-03-23T05:04:59;3.22;;;1.92;;
20535;SDS011;10426;49.420;8.390;2023-03-23T05:07:27;3.22;;;1.70;;
20535;SDS011;10426;49.420;8.390;2023-03-23T05:09:53;2.03;;;1.90;;
20535;SDS011;10426;49.420;8.390;2023-03-23T05:12:20;1.85;;;1.70;;
20535;SDS011;10426;49.420;8.390;2023-03-23T05:14:47;1.67;;;1.58;;
20535;SDS011;10426;49.420;8.390;2023-03-23T05:17:13;1.73;;;1.63;;
20535;SDS011;10426;49.420;8.390;2023-03-23T05:19:42;1.88;;;1.67;;
20535;SDS011;10426;49.420;8.390;2023-03-23T05:22:09;1.77;;;1.67;;
20535;SDS011;10426;49.420;8.390;2023-03-23T05:24:39;1.50;;;1.40;;
20535;SDS011;10426;49.420;8.390;2023-03-23T05:27:07;1.47;;;1.37;;
20535;SDS011;10426;49.420;8.390;2023-03-23T05:29:34;2.83;;;1.48;;
20535;SDS011;10426;49.420;8.390;2023-03-23T05:32:02;1.30;;;1.30;;
20535;SDS011;10426;49.420;8.390;2023-03-23T05:34:29;1.50;;;1.40;;
20535;SDS011;10426;49.420;8.390;2023-03-23T05:36:57;1.40;;;1.40;;
20535;SDS011;10426;49.420;8.390;2023-03-23T05:39:24;1.60;;;1.50;;
20535;SDS011;10426;49.420;8.390;2023-03-23T05:41:53;1.35;;;1.35;;
20535;SDS011;10426;49.420;8.390;2023-03-23T05:44:19;1.50;;;1.40;;
20535;SDS011;10426;49.420;8.390;2023-03-23T05:46:46;1.60;;;1.50;;
20535;SDS011;10426;49.420;8.390;2023-03-23T05:49:13;1.70;;;1.60;;
20535;SDS011;10426;49.420;8.390;2023-03-23T05:51:41;1.40;;;1.40;;
20535;SDS011;10426;49.420;8.390;2023-03-23T05:54:08;1.70;;;1.60;;
20535;SDS011;10426;49.420;8.390;2023-03-23T05:56:35;1.75;;;1.50;;
20535;SDS011;10426;49.420;8.390;2023-03-23T05:59:03;1.70;;;1.60;;
20535;SDS011;10426;49.420;8.390;2023-03-23T06:01:30;1.60;;;1.52;;
20535;SDS011;10426;49.420;8.390;2023-03-23T06:03:57;1.60;;;1.50;;
20535;SDS011;10426;49.420;8.390;2023-03-23T06:06:24;1.50;;;1.40;;
20535;SDS011;10426;49.420;8.390;2023-03-23T06:08:51;1.30;;;1.20;;
20535;SDS011;10426;49.420;8.390;2023-03-23T06:11:18;2.17;;;1.50;;
20535;SDS011;10426;49.420;8.390;2023-03-23T06:13:45;2.63;;;1.40;;
20535;SDS011;10426;49.420;8.390;2023-03-23T06:16:13;1.60;;;1.30;;
20535;SDS011;10426;49.420;8.390;2023-03-23T06:18:39;1.73;;;1.30;;
20535;SDS011;10426;49.420;8.390;2023-03-23T06:21:08;2.80;;;1.40;;
20535;SDS011;10426;49.420;8.390;2023-03-23T06:23:34;1.60;;;1.50;;
20535;SDS011;10426;49.420;8.390;2023-03-23T06:26:02;1.40;;;1.30;;
20535;SDS011;10426;49.420;8.390;2023-03-23T06:28:30;1.40;;;1.40;;
20535;SDS011;10426;49.420;8.390;2023-03-23T06:30:58;1.45;;;1.35;;
20535;SDS011;10426;49.420;8.390;2023-03-23T06:33:27;2.35;;;1.63;;
20535;SDS011;10426;49.420;8.390;2023-03-23T06:35:53;1.40;;;1.30;;
20535;SDS011;10426;49.420;8.390;2023-03-23T06:38:21;1.53;;;1.40;;
20535;SDS011;10426;49.420;8.390;2023-03-23T06:40:48;1.30;;;1.20;;
20535;SDS011;10426;49.420;8.390;2023-03-23T06:43:16;1.60;;;1.20;;
20535;SDS011;10426;49.420;8.390;2023-03-23T06:45:42;2.05;;;1.30;;
20535;SDS011;10426;49.420;8.390;2023-03-23T06:48:09;1.40;;;1.10;;
20535;SDS011;10426;49.420;8.390;2023-03-23T06:50:37;1.88;;;1.20;;
20535;SDS011;10426;49.420;8.390;2023-03-23T06:53:03;2.17;;;1.55;;
20535;SDS011;10426;49.420;8.390;2023-03-23T06:55:30;1.30;;;1.20;;
20535;SDS011;10426;49.420;8.390;2023-03-23T06:57:57;1.10;;;1.10;;
20535;SDS011;10426;49.420;8.390;2023-03-23T07:00:25;1.15;;;1.13;;
20535;SDS011;10426;49.420;8.390;2023-03-23T07:02:52;1.00;;;1.00;;
20535;SDS011;10426;49.420;8.390;2023-03-23T07:05:18;1.00;;;1.00;;
20535;SDS011;10426;49.420;8.390;2023-03-23T07:07:46;0.93;;;0.90;;
20535;SDS011;10426;49.420;8.390;2023-03-23T07:10:13;0.90;;;0.90;;
20535;SDS011;10426;49.420;8.390;2023-03-23T07:12:40;1.20;;;0.80;;
20535;SDS011;10426;49.420;8.390;2023-03-23T07:15:07;1.05;;;0.98;;
20535;SDS011;10426;49.420;8.390;2023-03-23T07:17:35;3.40;;;0.90;;
20535;SDS011;10426;49.420;8.390;2023-03-23T07:20:02;0.90;;;0.90;;
20535;SDS011;10426;49.420;8.390;2023-03-23T07:22:30;0.80;;;0.80;;
20535;SDS011;10426;49.420;8.390;2023-03-23T07:24:58;1.67;;;0.90;;
20535;SDS011;10426;49.420;8.390;2023-03-23T07:27:25;0.70;;;0.70;;
20535;SDS011;10426;49.420;8.390;2023-03-23T07:29:51;0.90;;;0.90;;
20535;SDS011;10426;49.420;8.390;2023-03-23T07:32:18;0.90;;;0.90;;
20535;SDS011;10426;49.420;8.390;2023-03-23T07:34:45;1.63;;;0.80;;
20535;SDS011;10426;49.420;8.390;2023-03-23T07:37:11;0.90;;;0.90;;
20535;SDS011;10426;49.420;8.390;2023-03-23T07:39:38;0.90;;;0.90;;
20535;SDS011;10426;49.420;8.390;2023-03-23T07:42:07;1.20;;;0.80;;
20535;SDS011;10426;49.420;8.390;2023-03-23T07:44:34;0.70;;;0.70;;
20535;SDS011;10426;49.420;8.390;2023-03-23T07:47:01;0.80;;;0.80;;
20535;SDS011;10426;49.420;8.390;2023-03-23T07:49:28;0.90;;;0.90;;
20535;SDS011;10426;49.420;8.390;2023-03-23T07:51:56;0.90;;;0.90;;
20535;SDS011;10426;49.420;8.390;2023-03-23T07:54:22;0.90;;;0.90;;
20535;SDS011;10426;49.420;8.390;2023-03-23T07:56:49;1.15;;;1.05;;
20535;SDS011;10426;49.420;8.390;2023-03-23T07:59:17;0.90;;;0.90;;
20535;SDS011;10426;49.420;8.390;2023-03-23T08:01:44;1.02;;;1.00;;
20535;SDS011;10426;49.420;8.390;2023-03-23T08:04:10;0.82;;;0.82;;
20535;SDS011;10426;49.420;8.390;2023-03-23T08:06:38;1.50;;;0.90;;
20535;SDS011;10426;49.420;8.390;2023-03-23T08:09:05;1.75;;;1.13;;
20535;SDS011;10426;49.420;8.390;2023-03-23T08:11:33;1.30;;;0.90;;
20535;SDS011;10426;49.420;8.390;2023-03-23T08:14:00;1.43;;;1.30;;
20535;SDS011;10426;49.420;8.390;2023-03-23T08:16:29;2.22;;;1.05;;
20535;SDS011;10426;49.420;8.390;2023-03-23T08:18:55;1.02;;;1.00;;
20535;SDS011;10426;49.420;8.390;2023-03-23T08:21:23;0.98;;;0.98;;
20535;SDS011;10426;49.420;8.390;2023-03-23T08:23:51;1.00;;;1.00;;
20535;SDS011;10426;49.420;8.390;2023-03-23T08:26:18;1.70;;;1.60;;
20535;SDS011;10426;49.420;8.390;2023-03-23T08:28:45;1.20;;;1.10;;
20535;SDS011;10426;49.420;8.390;2023-03-23T08:31:13;1.20;;;1.20;;
20535;SDS011;10426;49.420;8.390;2023-03-23T08:33:41;1.20;;;1.10;;
20535;SDS011;10426;49.420;8.390;2023-03-23T08:36:08;1.27;;;1.20;;
20535;SDS011;10426;49.420;8.390;2023-03-23T08:38:35;1.35;;;1.00;;
20535;SDS011;10426;49.420;8.390;2023-03-23T08:41:03;1.10;;;1.00;;
20535;SDS011;10426;49.420;8.390;2023-03-23T08:43:30;1.20;;;1.10;;
20535;SDS011;10426;49.420;8.390;2023-03-23T08:45:58;1.15;;;1.08;;
20535;SDS011;10426;49.420;8.390;2023-03-23T08:48:24;0.88;;;0.88;;
20535;SDS011;10426;49.420;8.390;2023-03-23T08:50:52;1.08;;;1.08;;
20535;SDS011;10426;49.420;8.390;2023-03-23T08:53:19;2.58;;;1.00;;
20535;SDS011;10426;49.420;8.390;2023-03-23T08:55:46;1.00;;;1.00;;
20535;SDS011;10426;49.420;8.390;2023-03-23T08:58:13;1.00;;;1.00;;
20535;SDS011;10426;49.420;8.390;2023-03-23T09:00:40;1.80;;;1.10;;
20535;SDS011;10426;49.420;8.390;2023-03-23T09:03:06;1.20;;;1.10;;
20535;SDS011;10426;49.420;8.390;2023-03-23T09:05:33;1.70;;;1.10;;
20535;SDS011;10426;49.420;8.390;2023-03-23T09:08:04;1.20;;;1.10;;
20535;SDS011;10426;49.420;8.390;2023-03-23T09:10:31;1.02;;;1.02;;
20535;SDS011;10426;49.420;8.390;2023-03-23T09:12:57;2.00;;;1.30;;
20535;SDS011;10426;49.420;8.390;2023-03-23T09:15:24;2.03;;;1.00;;
20535;SDS011;10426;49.420;8.390;2023-03-23T09:17:52;1.10;;;1.10;;
20535;SDS011;10426;49.420;8.390;2023-03-23T09:20:24;1.42;;;1.00;;
20535;SDS011;10426;49.420;8.390;2023-03-23T09:22:51;1.10;;;1.10;;
20535;SDS011;10426;49.420;8.390;2023-03-23T09:25:20;1.10;;;1.00;;
20535;SDS011;10426;49.420;8.390;2023-03-23T09:27:48;1.10;;;1.10;;
20535;SDS011;10426;49.420;8.390;2023-03-23T09:30:18;2.20;;;1.00;;
20535;SDS011;10426;49.420;8.390;2023-03-23T09:32:45;1.13;;;1.10;;
20535;SDS011;10426;49.420;8.390;2023-03-23T09:35:13;1.40;;;1.30;;
20535;SDS011;10426;49.420;8.390;2023-03-23T09:37:42;1.40;;;1.30;;
20535;SDS011;10426;49.420;8.390;2023-03-23T09:40:10;1.10;;;1.10;;
20535;SDS011;10426;49.420;8.390;2023-03-23T09:42:44;0.85;;;0.85;;
20535;SDS011;10426;49.420;8.390;2023-03-23T09:45:15;1.73;;;1.05;;
20535;SDS011;10426;49.420;8.390;2023-03-23T09:47:45;0.93;;;0.93;;
20535;SDS011;10426;49.420;8.390;2023-03-23T09:50:14;1.00;;;1.00;;
20535;SDS011;10426;49.420;8.390;2023-03-23T09:52:42;1.17;;;1.08;;
20535;SDS011;10426;49.420;8.390;2023-03-23T09:55:11;1.80;;;0.90;;
20535;SDS011;10426;49.420;8.390;2023-03-23T09:57:40;1.10;;;0.90;;
20535;SDS011;10426;49.420;8.390;2023-03-23T10:00:11;1.00;;;1.00;;
20535;SDS011;10426;49.420;8.390;2023-03-23T10:02:41;1.10;;;1.10;;
20535;SDS011;10426;49.420;8.390;2023-03-23T10:05:25;0.88;;;0.88;;
20535;SDS011;10426;49.420;8.390;2023-03-23T10:07:53;1.20;;;1.10;;
20535;SDS011;10426;49.420;8.390;2023-03-23T10:10:20;1.00;;;1.00;;
20535;SDS011;10426;49.420;8.390;2023-03-23T10:12:51;1.40;;;1.00;;
20535;SDS011;10426;49.420;8.390;2023-03-23T10:15:21;1.00;;;1.00;;
20535;SDS011;10426;49.420;8.390;2023-03-23T10:17:51;2.00;;;1.20;;
20535;SDS011;10426;49.420;8.390;2023-03-23T10:20:24;1.30;;;0.97;;
20535;SDS011;10426;49.420;8.390;2023-03-23T10:22:56;1.23;;;0.93;;
20535;SDS011;10426;49.420;8.390;2023-03-23T10:25:26;1.10;;;1.00;;
20535;SDS011;10426;49.420;8.390;2023-03-23T10:27:56;1.00;;;0.80;;
20535;SDS011;10426;49.420;8.390;2023-03-23T10:30:27;0.90;;;0.90;;
20535;SDS011;10426;49.420;8.390;2023-03-23T10:32:56;0.90;;;0.90;;
20535;SDS011;10426;49.420;8.390;2023-03-23T10:35:25;0.90;;;0.90;;
20535;SDS011;10426;49.420;8.390;2023-03-23T10:37:54;2.40;;;1.30;;
20535;SDS011;10426;49.420;8.390;2023-03-23T10:40:23;1.27;;;1.00;;
20535;SDS011;10426;49.420;8.390;2023-03-23T10:42:51;1.10;;;1.05;;
20535;SDS011;10426;49.420;8.390;2023-03-23T10:45:21;1.10;;;1.10;;
20535;SDS011;10426;49.420;8.390;2023-03-23T10:47:51;0.95;;;0.95;;
20535;SDS011;10426;49.420;8.390;2023-03-23T10:50:22;1.02;;;1.02;;
20535;SDS011;10426;49.420;8.390;2023-03-23T10:52:49;1.20;;;0.93;;
20535;SDS011;10426;49.420;8.390;2023-03-23T10:55:17;0.90;;;0.90;;
20535;SDS011;10426;49.420;8.390;2023-03-23T10:57:45;0.90;;;0.90;;
20535;SDS011;10426;49.420;8.390;2023-03-23T11:00:17;0.70;;;0.70;;
20535;SDS011;10426;49.420;8.390;2023-03-23T11:02:45;1.17;;;0.77;;
20535;SDS011;10426;49.420;8.390;2023-03-23T11:05:15;0.77;;;0.77;;
20535;SDS011;10426;49.420;8.390;2023-03-23T11:07:47;0.80;;;0.80;;
20535;SDS011;10426;49.420;8.390;2023-03-23T11:10:17;0.70;;;0.70;;
20535;SDS011;10426;49.420;8.390;2023-03-23T11:12:46;0.70;;;0.70;;
20535;SDS011;10426;49.420;8.390;2023-03-23T11:15:25;3.60;;;2.70;;
20535;SDS011;10426;49.420;8.390;2023-03-23T11:17:56;0.90;;;0.90;;
20535;SDS011;10426;49.420;8.390;2023-03-23T11:20:25;0.90;;;0.90;;
20535;SDS011;10426;49.420;8.390;2023-03-23T11:22:53;1.20;;;1.10;;
20535;SDS011;10426;49.420;8.390;2023-03-23T11:25:20;0.90;;;0.82;;
20535;SDS011;10426;49.420;8.390;2023-03-23T11:27:47;0.80;;;0.80;;
20535;SDS011;10426;49.420;8.390;2023-03-23T11:30:19;0.70;;;0.70;;
20535;SDS011;10426;49.420;8.390;2023-03-23T11:32:47;0.82;;;0.82;;
20535;SDS011;10426;49.420;8.390;2023-03-23T11:35:16;1.48;;;0.90;;
20535;SDS011;10426;49.420;8.390;2023-03-23T11:37:45;0.80;;;0.80;;
20535;SDS011;10426;49.420;8.390;2023-03-23T11:40:14;1.00;;;0.77;;
20535;SDS011;10426;49.420;8.390;2023-03-23T11:42:42;1.75;;;0.80;;
20535;SDS011;10426;49.420;8.390;2023-03-23T11:45:17;1.10;;;1.00;;
20535;SDS011;10426;49.420;8.390;2023-03-23T11:47:47;0.70;;;0.70;;
20535;SDS011;10426;49.420;8.390;2023-03-23T11:50:17;0.80;;;0.80;;
20535;SDS011;10426;49.420;8.390;2023-03-23T11:52:51;0.82;;;0.82;;
20535;SDS011;10426;49.420;8.390;2023-03-23T11:55:19;0.80;;;0.80;;
20535;SDS011;10426;49.420;8.390;2023-03-23T11:57:47;0.70;;;0.70;;
20535;SDS011;10426;49.420;8.390;2023-03-23T12:00:14;0.90;;;0.90;;
20535;SDS011;10426;49.420;8.390;2023-03-23T12:05:33;1.23;;;0.82;;
20535;SDS011;10426;49.420;8.390;2023-03-23T12:08:12;0.80;;;0.80;;
20535;SDS011;10426;49.420;8.390;2023-03-23T12:10:43;2.22;;;0.88;;
20535;SDS011;10426;49.420;8.390;2023-03-23T12:13:17;0.70;;;0.70;;
20535;SDS011;10426;49.420;8.390;2023-03-23T12:15:50;0.70;;;0.70;;
20535;SDS011;10426;49.420;8.390;2023-03-23T12:18:18;1.40;;;0.85;;
20535;SDS011;10426;49.420;8.390;2023-03-23T12:20:52;0.93;;;0.93;;
20535;SDS011;10426;49.420;8.390;2023-03-23T12:23:24;0.70;;;0.70;;
20535;SDS011;10426;49.420;8.390;2023-03-23T12:25:57;0.70;;;0.70;;
20535;SDS011;10426;49.420;8.390;2023-03-23T12:28:30;0.80;;;0.80;;
20535;SDS011;10426;49.420;8.390;2023-03-23T12:31:01;0.90;;;0.90;;
20535;SDS011;10426;49.420;8.390;2023-03-23T12:33:33;0.70;;;0.70;;
20535;SDS011;10426;49.420;8.390;2023-03-23T12:36:04;0.90;;;0.90;;
20535;SDS011;10426;49.420;8.390;2023-03-23T12:38:39;0.90;;;0.90;;
20535;SDS011;10426;49.420;8.390;2023-03-23T12:41:15;0.70;;;0.70;;
20535;SDS011;10426;49.420;8.390;2023-03-23T12:43:46;0.80;;;0.80;;
20535;SDS011;10426;49.420;8.390;2023-03-23T12:46:24;0.82;;;0.82;;
20535;SDS011;10426;49.420;8.390;2023-03-23T12:48:55;1.15;;;0.80;;
20535;SDS011;10426;49.420;8.390;2023-03-23T12:51:24;0.77;;;0.77;;
20535;SDS011;10426;49.420;8.390;2023-03-23T12:53:57;0.80;;;0.80;;
20535;SDS011;10426;49.420;8.390;2023-03-23T12:56:26;1.23;;;0.65;;
20535;SDS011;10426;49.420;8.390;2023-03-23T12:58:56;0.73;;;0.70;;
20535;SDS011;10426;49.420;8.390;2023-03-23T13:01:25;0.80;;;0.80;;
20535;SDS011;10426;49.420;8.390;2023-03-23T13:03:54;0.60;;;0.60;;
20535;SDS011;10426;49.420;8.390;2023-03-23T13:06:23;0.80;;;0.80;;
20535;SDS011;10426;49.420;8.390;2023-03-23T13:08:53;0.70;;;0.60;;
20535;SDS011;10426;49.420;8.390;2023-03-23T13:11:26;0.70;;;0.70;;
20535;SDS011;10426;49.420;8.390;2023-03-23T13:13:55;0.93;;;0.93;;
20535;SDS011;10426;49.420;8.390;2023-03-23T13:16:26;1.05;;;0.90;;
20535;SDS011;10426;49.420;8.390;2023-03-23T13:18:57;1.65;;;0.90;;
20535;SDS011;10426;49.420;8.390;2023-03-23T13:21:27;1.45;;;0.73;;
20535;SDS011;10426;49.420;8.390;2023-03-23T13:23:56;0.60;;;0.60;;
20535;SDS011;10426;49.420;8.390;2023-03-23T13:26:24;0.75;;;0.75;;
20535;SDS011;10426;49.420;8.390;2023-03-23T13:28:55;0.88;;;0.88;;
20535;SDS011;10426;49.420;8.390;2023-03-23T13:31:24;0.80;;;0.80;;
20535;SDS011;10426;49.420;8.390;2023-03-23T13:33:52;0.80;;;0.80;;
20535;SDS011;10426;49.420;8.390;2023-03-23T13:36:26;0.80;;;0.80;;
20535;SDS011;10426;49.420;8.390;2023-03-23T13:38:53;1.40;;;0.90;;
20535;SDS011;10426;49.420;8.390;2023-03-23T13:41:19;0.77;;;0.77;;
20535;SDS011;10426;49.420;8.390;2023-03-23T13:43:48;0.93;;;0.90;;
20535;SDS011;10426;49.420;8.390;2023-03-23T13:46:26;1.17;;;1.10;;
20535;SDS011;10426;49.420;8.390;2023-03-23T13:49:02;0.90;;;0.90;;
20535;SDS011;10426;49.420;8.390;2023-03-23T13:51:34;0.90;;;0.90;;
20535;SDS011;10426;49.420;8.390;2023-03-23T13:54:05;0.88;;;0.88;;
20535;SDS011;10426;49.420;8.390;2023-03-23T13:56:35;0.80;;;0.80;;
20535;SDS011;10426;49.420;8.390;2023-03-23T13:59:06;0.90;;;0.90;;
20535;SDS011;10426;49.420;8.390;2023-03-23T14:01:34;1.13;;;1.00;;
20535;SDS011;10426;49.420;8.390;2023-03-23T14:04:03;0.80;;;0.80;;
20535;SDS011;10426;49.420;8.390;2023-03-23T14:06:33;0.95;;;0.88;;
20535;SDS011;10426;49.420;8.390;2023-03-23T14:09:04;0.80;;;0.80;;
20535;SDS011;10426;49.420;8.390;2023-03-23T14:11:31;0.80;;;0.80;;
20535;SDS011;10426;49.420;8.390;2023-03-23T14:14:02;1.05;;;1.00;;
20535;SDS011;10426;49.420;8.390;2023-03-23T14:16:37;1.20;;;1.00;;
20535;SDS011;10426;49.420;8.390;2023-03-23T14:19:12;1.10;;;1.10;;
20535;SDS011;10426;49.420;8.390;2023-03-23T14:21:49;0.90;;;0.90;;
20535;SDS011;10426;49.420;8.390;2023-03-23T14:24:17;0.88;;;0.85;;
20535;SDS011;10426;49.420;8.390;2023-03-23T14:26:47;1.13;;;0.90;;
20535;SDS011;10426;49.420;8.390;2023-03-23T14:29:14;1.08;;;0.77;;
20535;SDS011;10426;49.420;8.390;2023-03-23T14:31:42;1.10;;;0.80;;
20535;SDS011;10426;49.420;8.390;2023-03-23T14:34:12;0.80;;;0.80;;
20535;SDS011;10426;49.420;8.390;2023-03-23T14:36:42;0.80;;;0.80;;
20535;SDS011;10426;49.420;8.390;2023-03-23T14:39:14;0.70;;;0.70;;
20535;SDS011;10426;49.420;8.390;2023-03-23T14:41:41;0.90;;;0.90;;
20535;SDS011;10426;49.420;8.390;2023-03-23T14:44:10;0.90;;;0.90;;
20535;SDS011;10426;49.420;8.390;2023-03-23T14:46:39;0.80;;;0.67;;
20535;SDS011;10426;49.420;8.390;2023-03-23T14:49:11;1.17;;;0.98;;
20535;SDS011;10426;49.420;8.390;2023-03-23T14:51:46;1.10;;;1.10;;
20535;SDS011;10426;49.420;8.390;2023-03-23T14:54:13;1.40;;;1.30;;
20535;SDS011;10426;49.420;8.390;2023-03-23T14:56:40;1.00;;;1.00;;
20535;SDS011;10426;49.420;8.390;2023-03-23T14:59:09;1.40;;;1.30;;
20535;SDS011;10426;49.420;8.390;2023-03-23T15:01:37;1.00;;;1.00;;
20535;SDS011;10426;49.420;8.390;2023-03-23T15:04:06;1.60;;;0.80;;
20535;SDS011;10426;49.420;8.390;2023-03-23T15:06:39;1.20;;;0.90;;